Time;durP1;ratioP1;P1;durP2;ratioP2;P2;SDS_P1;SDS_P2;PMS_P1;PMS_P2;Temp;Humidity;BMP_temperature;BMP_pressure;BME280_temperature;BME280_humidity;BME280_pressure;Samples;Min_cycle;Max_cycle;Signal;HPM_P1;HPM_P2
2022/08/09 00:02:31;;;;;;;9.60;4.18;;;;;;;;;;5088887;27;95670;-75
2022/08/09 00:04:59;;;;;;;8.32;4.03;;;;;;;;;;5078825;27;96702;-75
2022/08/09 00:07:45;;;;;;;7.63;4.07;;;;;;;;;;5085456;27;99446;-75
2022/08/09 00:10:12;;;;;;;8.52;4.40;;;;;;;;;;5086546;27;95853;-74
2022/08/09 00:12:43;;;;;;;6.03;4.30;;;;;;;;;;5089840;27;96953;-74
2022/08/09 00:15:11;;;;;;;9.60;4.20;;;;;;;;;;5076612;27;97314;-74
2022/08/09 00:17:40;;;;;;;6.65;3.97;;;;;;;;;;5087355;27;96851;-75
2022/08/09 00:20:26;;;;;;;7.40;4.10;;;;;;;;;;5060603;27;99137;-74
2022/08/09 00:22:56;;;;;;;8.05;4.43;;;;;;;;;;5078840;27;95706;-75
2022/08/09 00:25:33;;;;;;;7.45;4.18;;;;;;;;;;5066990;27;97117;-74
2022/08/09 00:28:00;;;;;;;9.35;3.70;;;;;;;;;;5088081;27;97254;-75
2022/08/09 00:30:29;;;;;;;7.45;3.65;;;;;;;;;;5086481;27;96875;-75
2022/08/09 00:32:56;;;;;;;7.20;4.07;;;;;;;;;;5089518;27;96809;-75
2022/08/09 00:35:23;;;;;;;7.07;3.50;;;;;;;;;;5092557;27;97259;-75
2022/08/09 00:37:49;;;;;;;8.10;4.03;;;;;;;;;;5084108;27;96105;-75
2022/08/09 00:40:16;;;;;;;7.43;4.05;;;;;;;;;;5094124;27;96899;-75
2022/08/09 00:42:45;;;;;;;8.63;4.00;;;;;;;;;;5092954;27;95738;-75
2022/08/09 00:45:31;;;;;;;7.78;4.13;;;;;;;;;;5089205;27;99133;-74
2022/08/09 00:48:00;;;;;;;6.32;4.15;;;;;;;;;;5080976;27;97694;-74
2022/08/09 00:50:27;;;;;;;8.70;4.20;;;;;;;;;;5088166;27;95704;-74
2022/08/09 00:52:53;;;;;;;6.47;4.22;;;;;;;;;;5092107;27;96461;-74
2022/08/09 00:55:20;;;;;;;8.57;4.38;;;;;;;;;;5092401;27;97583;-74
2022/08/09 00:58:06;;;;;;;9.02;4.78;;;;;;;;;;5089727;27;95731;-74
2022/08/09 01:00:36;;;;;;;12.52;4.30;;;;;;;;;;5084890;27;96954;-74
2022/08/09 01:03:14;;;;;;;6.17;4.53;;;;;;;;;;5086795;27;97412;-74
2022/08/09 01:05:48;;;;;;;7.50;4.78;;;;;;;;;;5087300;27;95864;-74
2022/08/09 01:08:22;;;;;;;9.30;4.75;;;;;;;;;;5063660;27;97427;-75
2022/08/09 01:11:04;;;;;;;9.02;4.80;;;;;;;;;;5084366;27;95985;-74
2022/08/09 01:13:45;;;;;;;9.23;4.93;;;;;;;;;;5091585;27;95945;-74
2022/08/09 01:16:37;;;;;;;8.37;5.10;;;;;;;;;;5083309;27;97427;-74
2022/08/09 01:19:36;;;;;;;8.50;5.60;;;;;;;;;;5091212;27;96936;-74
2022/08/09 01:22:36;;;;;;;11.07;6.03;;;;;;;;;;5076604;27;95942;-74
2022/08/09 01:25:02;;;;;;;11.15;5.35;;;;;;;;;;5091079;27;97729;-74
2022/08/09 01:27:30;;;;;;;9.52;5.20;;;;;;;;;;5093754;27;95156;-74
2022/08/09 01:29:59;;;;;;;17.08;5.40;;;;;;;;;;5090420;27;97317;-75
2022/08/09 01:32:29;;;;;;;8.65;5.18;;;;;;;;;;5091605;27;95352;-74
2022/08/09 01:35:02;;;;;;;11.43;5.45;;;;;;;;;;5090477;27;97018;-74
2022/08/09 01:37:50;;;;;;;11.88;5.43;;;;;;;;;;5090392;27;99221;-74
2022/08/09 01:40:39;;;;;;;11.57;5.32;;;;;;;;;;5091238;27;97119;-75
2022/08/09 01:43:06;;;;;;;13.60;5.53;;;;;;;;;;5079951;27;96863;-74
2022/08/09 01:45:33;;;;;;;9.93;5.80;;;;;;;;;;5067140;27;97239;-74
2022/08/09 01:48:13;;;;;;;7.82;4.72;;;;;;;;;;5084326;27;95515;-74
2022/08/09 01:50:41;;;;;;;11.48;5.88;;;;;;;;;;5095155;27;96763;-74
2022/08/09 01:53:14;;;;;;;13.35;6.47;;;;;;;;;;5078808;27;95301;-74
2022/08/09 01:55:45;;;;;;;10.10;6.28;;;;;;;;;;5085360;27;96355;-74
2022/08/09 01:58:12;;;;;;;11.40;6.45;;;;;;;;;;5089100;27;97637;-74
2022/08/09 02:00:40;;;;;;;10.15;6.60;;;;;;;;;;5083362;27;95769;-74
2022/08/09 02:03:13;;;;;;;10.95;6.22;;;;;;;;;;5083051;27;96877;-73
2022/08/09 02:05:43;;;;;;;10.95;6.72;;;;;;;;;;5084911;27;97061;-74
2022/08/09 02:08:30;;;;;;;13.23;6.90;;;;;;;;;;5083915;27;97387;-74
2022/08/09 02:11:17;;;;;;;11.63;6.97;;;;;;;;;;5091227;27;98581;-74
2022/08/09 02:13:45;;;;;;;12.40;6.65;;;;;;;;;;5077273;27;97603;-74
2022/08/09 02:16:34;;;;;;;12.25;6.65;;;;;;;;;;5089503;27;97335;-74
2022/08/09 02:19:21;;;;;;;14.05;7.13;;;;;;;;;;5083273;27;99007;-74
2022/08/09 02:21:49;;;;;;;11.85;6.68;;;;;;;;;;5073423;27;96682;-74
2022/08/09 02:24:22;;;;;;;11.23;6.80;;;;;;;;;;5075461;27;95728;-74
2022/08/09 02:26:54;;;;;;;12.88;7.05;;;;;;;;;;5069868;27;97281;-74
2022/08/09 02:29:26;;;;;;;18.33;7.40;;;;;;;;;;5084799;27;95196;-74
2022/08/09 02:31:58;;;;;;;11.98;6.57;;;;;;;;;;5056045;27;96756;-74
2022/08/09 02:34:34;;;;;;;12.32;7.05;;;;;;;;;;5087820;27;98294;-74
2022/08/09 02:37:19;;;;;;;11.23;6.53;;;;;;;;;;5082248;27;96900;-74
2022/08/09 02:39:48;;;;;;;11.75;6.45;;;;;;;;;;5088569;27;96412;-76
2022/08/09 02:42:30;;;;;;;11.95;6.70;;;;;;;;;;5091074;27;95447;-74
2022/08/09 02:45:01;;;;;;;10.32;6.63;;;;;;;;;;5088706;27;96896;-74
2022/08/09 02:47:29;;;;;;;12.68;7.75;;;;;;;;;;5062588;27;97340;-74
2022/08/09 02:50:19;;;;;;;16.85;7.30;;;;;;;;;;5068019;27;96943;-74
2022/08/09 02:52:51;;;;;;;14.05;7.72;;;;;;;;;;5069953;27;97153;-74
2022/08/09 02:55:21;;;;;;;10.50;7.00;;;;;;;;;;5059062;27;97349;-74
2022/08/09 02:58:08;;;;;;;11.75;7.43;;;;;;;;;;5061384;27;96167;-74
2022/08/09 03:00:56;;;;;;;13.73;7.03;;;;;;;;;;5069166;27;99378;-74
2022/08/09 03:03:24;;;;;;;10.45;7.40;;;;;;;;;;5055958;27;95368;-74
2022/08/09 03:06:13;;;;;;;13.20;7.35;;;;;;;;;;5058926;27;98138;-74
2022/08/09 03:08:44;;;;;;;13.70;7.85;;;;;;;;;;5068631;27;97363;-74
2022/08/09 03:11:13;;;;;;;13.93;7.10;;;;;;;;;;5070271;27;95820;-74
2022/08/09 03:14:00;;;;;;;13.43;7.78;;;;;;;;;;5052231;27;98518;-74
2022/08/09 03:16:28;;;;;;;12.20;6.82;;;;;;;;;;5068243;27;97382;-74
2022/08/09 03:18:55;;;;;;;14.43;6.53;;;;;;;;;;5067294;27;95498;-73
2022/08/09 03:21:27;;;;;;;13.00;6.90;;;;;;;;;;5072708;27;96899;-74
2022/08/09 03:24:04;;;;;;;12.85;6.88;;;;;;;;;;5052934;27;95287;-74
2022/08/09 03:26:36;;;;;;;14.77;6.85;;;;;;;;;;5067564;27;96757;-74
2022/08/09 03:29:11;;;;;;;12.10;7.40;;;;;;;;;;5068675;27;97223;-74
2022/08/09 03:31:48;;;;;;;15.20;7.47;;;;;;;;;;5068699;27;96008;-74
2022/08/09 03:34:25;;;;;;;12.35;7.57;;;;;;;;;;5054980;27;96895;-74
2022/08/09 03:36:52;;;;;;;11.85;7.80;;;;;;;;;;5058475;27;99141;-74
2022/08/09 03:39:26;;;;;;;13.63;7.30;;;;;;;;;;5060527;27;95848;-74
2022/08/09 03:42:03;;;;;;;13.85;7.85;;;;;;;;;;5062088;27;97205;-74
2022/08/09 03:44:32;;;;;;;12.68;7.30;;;;;;;;;;5069672;27;97201;-74
2022/08/09 03:46:58;;;;;;;12.63;7.28;;;;;;;;;;5067446;27;97040;-74
2022/08/09 03:49:26;;;;;;;15.00;7.90;;;;;;;;;;5059688;27;97951;-74
2022/08/09 03:51:59;;;;;;;14.02;7.90;;;;;;;;;;5066515;27;95311;-74
2022/08/09 03:54:33;;;;;;;16.37;7.73;;;;;;;;;;5068212;27;96879;-74
2022/08/09 03:57:05;;;;;;;13.20;6.88;;;;;;;;;;5069223;27;96992;-74
2022/08/09 03:59:46;;;;;;;12.68;7.20;;;;;;;;;;5065961;27;95283;-74
2022/08/09 04:02:21;;;;;;;11.18;7.13;;;;;;;;;;5066942;27;96831;-74
2022/08/09 04:04:52;;;;;;;;;;;;;;;;;;5069701;27;97265;-74
2022/08/09 04:07:19;;;;;;;12.85;7.50;;;;;;;;;;5070994;27;118900;-74
2022/08/09 04:09:45;;;;;;;12.30;7.13;;;;;;;;;;5068202;27;97208;-74
2022/08/09 04:12:34;;;;;;;10.77;6.90;;;;;;;;;;5072401;27;95256;-74
2022/08/09 04:15:01;;;;;;;14.85;7.25;;;;;;;;;;5073051;27;96994;-74
2022/08/09 04:17:48;;;;;;;12.93;7.30;;;;;;;;;;5070601;27;99198;-74
2022/08/09 04:20:17;;;;;;;12.60;7.10;;;;;;;;;;5070532;27;96920;-74
2022/08/09 04:22:44;;;;;;;11.82;6.95;;;;;;;;;;5072174;27;96633;-74
2022/08/09 04:25:11;;;;;;;13.13;7.43;;;;;;;;;;5071634;27;97350;-74
2022/08/09 04:27:41;;;;;;;15.65;7.53;;;;;;;;;;5072344;27;95395;-74
2022/08/09 04:30:15;;;;;;;15.38;7.80;;;;;;;;;;5073536;27;96830;-74
2022/08/09 04:32:41;;;;;;;11.15;7.00;;;;;;;;;;5071017;27;95493;-74
2022/08/09 04:35:12;;;;;;;12.95;6.65;;;;;;;;;;5072501;27;97014;-74
2022/08/09 19:50:18;;;;;;;2.30;1.30;;;;;;;;;;5064207;27;1321106;-75
2022/08/09 19:53:04;;;;;;;1.25;1.10;;;;;;;;;;5086254;27;98906;-75
2022/08/09 19:55:31;;;;;;;2.47;1.40;;;;;;;;;;5086605;27;95349;-76
2022/08/09 19:58:18;;;;;;;1.75;1.25;;;;;;;;;;5079286;27;99058;-75
2022/08/09 20:00:55;;;;;;;1.65;1.13;;;;;;;;;;5082913;27;97523;-75
2022/08/09 20:03:22;;;;;;;2.40;1.30;;;;;;;;;;5068032;27;95428;-76
2022/08/09 20:06:12;;;;;;;6.00;1.38;;;;;;;;;;5065424;27;98596;-76
2022/08/09 20:08:50;;;;;;;2.60;1.20;;;;;;;;;;5084328;27;97346;-77
2022/08/09 20:11:17;;;;;;;1.48;1.15;;;;;;;;;;5087634;27;95249;-76
2022/08/09 20:13:46;;;;;;;2.17;1.40;;;;;;;;;;5085715;27;97610;-76
2022/08/09 20:16:20;;;;;;;1.60;1.38;;;;;;;;;;5083078;27;95740;-75
2022/08/09 20:19:06;;;;;;;3.70;1.33;;;;;;;;;;5084797;27;98751;-75
2022/08/09 20:21:53;;;;;;;3.88;1.40;;;;;;;;;;5084940;27;98511;-75
2022/08/09 20:24:24;;;;;;;1.88;1.33;;;;;;;;;;5084889;27;95609;-75
2022/08/09 20:26:59;;;;;;;3.95;1.50;;;;;;;;;;5082321;27;97112;-76
2022/08/09 20:29:26;;;;;;;2.63;1.60;;;;;;;;;;5077486;27;96500;-76
2022/08/09 20:32:02;;;;;;;3.42;1.85;;;;;;;;;;5071267;27;96085;-76
2022/08/09 20:34:49;;;;;;;9.30;1.90;;;;;;;;;;5068245;27;98000;-75
2022/08/09 20:37:16;;;;;;;2.70;1.40;;;;;;;;;;5082278;27;95427;-76
2022/08/09 20:39:46;;;;;;;2.60;1.52;;;;;;;;;;5085125;27;96840;-76
2022/08/09 20:42:33;;;;;;;11.52;1.60;;;;;;;;;;5075366;27;99394;-75
2022/08/09 20:45:03;;;;;;;2.60;1.45;;;;;;;;;;5078997;27;95740;-75
2022/08/09 20:47:49;;;;;;;2.22;1.40;;;;;;;;;;5084480;27;98432;-75
2022/08/09 20:50:15;;;;;;;3.63;1.50;;;;;;;;;;5084206;27;97306;-75
2022/08/09 20:53:02;;;;;;;4.20;1.70;;;;;;;;;;5078558;27;95772;-75
2022/08/09 20:55:28;;;;;;;1.92;1.40;;;;;;;;;;5083204;27;97215;-75
2022/08/09 20:58:12;;;;;;;2.03;1.50;;;;;;;;;;5086117;27;97546;-76
2022/08/09 21:00:45;;;;;;;5.03;1.48;;;;;;;;;;5076899;27;95959;-76
2022/08/09 21:03:32;;;;;;;3.60;1.33;;;;;;;;;;5071349;27;99130;-76
2022/08/09 21:06:18;;;;;;;7.53;1.50;;;;;;;;;;5072026;27;96686;-75
2022/08/09 21:08:48;;;;;;;4.80;1.50;;;;;;;;;;5071983;27;96787;-75
2022/08/09 21:11:15;;;;;;;2.30;1.40;;;;;;;;;;5065228;27;97556;-75
2022/08/09 21:14:02;;;;;;;3.85;1.48;;;;;;;;;;5054894;27;96447;-75
2022/08/09 21:16:28;;;;;;;6.13;1.48;;;;;;;;;;5061256;27;96909;-75
2022/08/09 21:18:57;;;;;;;2.47;1.40;;;;;;;;;;5056424;27;97314;-75
2022/08/09 21:21:45;;;;;;;2.53;1.70;;;;;;;;;;5066934;27;96561;-75
2022/08/09 21:24:25;;;;;;;4.47;1.50;;;;;;;;;;5062887;27;97256;-75
2022/08/09 21:26:57;;;;;;;7.18;1.80;;;;;;;;;;5054898;27;95117;-75
2022/08/09 21:29:24;;;;;;;3.10;1.70;;;;;;;;;;5068816;27;96822;-75
2022/08/09 21:31:50;;;;;;;3.00;1.50;;;;;;;;;;5068793;27;97406;-75
2022/08/09 21:34:16;;;;;;;3.05;1.48;;;;;;;;;;5071525;27;95470;-75
2022/08/09 21:36:54;;;;;;;2.58;1.50;;;;;;;;;;5052961;27;96861;-74
2022/08/09 21:39:21;;;;;;;2.85;1.58;;;;;;;;;;5063399;27;97223;-75
2022/08/09 21:42:07;;;;;;;3.63;1.42;;;;;;;;;;5051542;27;95140;-75
2022/08/09 21:44:35;;;;;;;2.17;1.52;;;;;;;;;;5067899;27;96714;-75
2022/08/09 21:47:04;;;;;;;5.03;1.60;;;;;;;;;;5054203;27;95419;-75
2022/08/09 21:49:33;;;;;;;1.75;1.42;;;;;;;;;;5069063;27;96610;-75
2022/08/09 21:52:08;;;;;;;4.03;1.50;;;;;;;;;;5060380;27;97768;-75
2022/08/09 21:54:42;;;;;;;2.42;1.25;;;;;;;;;;5070858;27;95604;-74
2022/08/09 21:57:15;;;;;;;2.63;1.55;;;;;;;;;;5058879;27;96748;-75
2022/08/09 22:00:03;;;;;;;2.33;1.42;;;;;;;;;;5060398;27;99733;-75
2022/08/09 22:02:29;;;;;;;5.85;1.30;;;;;;;;;;5057430;27;95668;-75
2022/08/09 22:05:02;;;;;;;3.67;1.60;;;;;;;;;;5059969;27;96715;-75
2022/08/09 22:07:48;;;;;;;2.95;1.88;;;;;;;;;;5062505;27;95569;-75
2022/08/09 22:10:20;;;;;;;4.03;1.58;;;;;;;;;;5069683;27;97116;-75
2022/08/09 22:12:49;;;;;;;4.53;1.40;;;;;;;;;;5053057;27;97237;-75
2022/08/09 22:15:17;;;;;;;4.35;1.80;;;;;;;;;;5057934;27;97042;-75
2022/08/09 22:17:46;;;;;;;2.00;1.50;;;;;;;;;;5057290;27;96821;-75
2022/08/09 22:20:13;;;;;;;2.42;1.50;;;;;;;;;;5059236;27;97315;-75
2022/08/09 22:22:47;;;;;;;2.72;1.50;;;;;;;;;;5066766;27;95859;-75
2022/08/09 22:25:14;;;;;;;3.05;1.30;;;;;;;;;;5066710;27;95607;-75
2022/08/09 22:28:00;;;;;;;1.48;1.30;;;;;;;;;;5061855;27;98014;-75
2022/08/09 22:30:32;;;;;;;1.60;1.40;;;;;;;;;;5064979;27;96791;-75
2022/08/09 22:32:58;;;;;;;4.00;1.50;;;;;;;;;;5052210;27;97407;-75
2022/08/09 22:35:26;;;;;;;4.05;1.50;;;;;;;;;;5064600;27;95642;-76
2022/08/09 22:38:13;;;;;;;3.03;1.58;;;;;;;;;;5062483;27;98524;-75
2022/08/09 22:40:40;;;;;;;5.45;1.50;;;;;;;;;;5066818;27;97739;-75
2022/08/09 22:43:22;;;;;;;1.75;1.30;;;;;;;;;;5051686;27;96028;-75
2022/08/09 22:46:08;;;;;;;6.40;1.40;;;;;;;;;;5069233;27;98699;-75
2022/08/09 22:48:54;;;;;;;4.78;1.40;;;;;;;;;;5069596;27;99741;-75
2022/08/09 22:51:27;;;;;;;2.03;1.50;;;;;;;;;;5068935;27;95751;-75
2022/08/09 22:53:53;;;;;;;3.97;1.50;;;;;;;;;;5056082;27;97510;-75
2022/08/09 22:56:29;;;;;;;1.83;1.50;;;;;;;;;;5058877;27;95619;-75
2022/08/09 22:59:00;;;;;;;2.08;1.40;;;;;;;;;;5069533;27;96657;-75
2022/08/09 23:01:31;;;;;;;1.35;1.25;;;;;;;;;;5054533;27;96606;-77
2022/08/09 23:03:58;;;;;;;3.95;1.65;;;;;;;;;;5066831;27;95858;-77
2022/08/09 23:08:43;;;;;;;5.07;1.55;;;;;;;;;;5065704;27;96726;-78
2022/08/09 23:09:17;;;;;;;2.58;1.60;;;;;;;;;;5065574;27;96209;-75
2022/08/09 23:11:44;;;;;;;2.40;1.63;;;;;;;;;;5056994;27;95268;-75
2022/08/09 23:14:10;;;;;;;1.33;1.23;;;;;;;;;;5069059;27;97019;-75
2022/08/09 23:16:55;;;;;;;2.15;1.40;;;;;;;;;;5052700;27;95904;-75
2022/08/09 23:19:21;;;;;;;3.83;1.50;;;;;;;;;;5068631;27;96900;-75
2022/08/09 23:21:48;;;;;;;1.63;1.30;;;;;;;;;;5061516;27;97484;-75
2022/08/09 23:24:14;;;;;;;2.20;1.70;;;;;;;;;;5055517;27;95626;-75
2022/08/09 23:26:41;;;;;;;1.80;1.50;;;;;;;;;;5065039;27;96802;-75
2022/08/09 23:29:12;;;;;;;2.50;1.70;;;;;;;;;;5054619;27;97398;-75
2022/08/09 23:31:39;;;;;;;9.30;1.63;;;;;;;;;;5058678;27;95835;-75
2022/08/09 23:34:05;;;;;;;1.85;1.50;;;;;;;;;;5058956;27;96753;-74
2022/08/09 23:36:33;;;;;;;1.73;1.52;;;;;;;;;;5058043;27;97555;-75
2022/08/09 23:38:59;;;;;;;2.13;1.52;;;;;;;;;;5050281;27;98852;-74
2022/08/09 23:41:26;;;;;;;2.10;1.52;;;;;;;;;;5068241;27;96697;-75
2022/08/09 23:43:56;;;;;;;1.95;1.55;;;;;;;;;;5069012;27;95613;-75
2022/08/09 23:46:22;;;;;;;2.58;1.60;;;;;;;;;;5055846;27;96730;-75
2022/08/09 23:48:48;;;;;;;2.72;1.63;;;;;;;;;;5063219;27;97336;-75
2022/08/09 23:51:16;;;;;;;2.40;1.60;;;;;;;;;;5067960;27;95475;-75
2022/08/09 23:53:43;;;;;;;2.17;1.63;;;;;;;;;;5062806;27;96834;-74
2022/08/09 23:56:09;;;;;;;2.33;1.60;;;;;;;;;;5065166;27;97480;-75
2022/08/09 23:58:35;;;;;;;5.32;1.95;;;;;;;;;;5070808;27;95315;-75
